Time;durP1;ratioP1;P1;durP2;ratioP2;P2;SDS_P1;SDS_P2;PMS_P1;PMS_P2;Temp;Humidity;BMP_temperature;BMP_pressure;BME280_temperature;BME280_humidity;BME280_pressure;Samples;Min_cycle;Max_cycle;Signal;HPM_P1;HPM_P2
2021/05/04 00:02:08;;;;;;;16.35;5.60;;;;;;;-139.48;100.00;61774.03;4993304;28;20049;-65
2021/05/04 00:04:52;;;;;;;6.75;5.03;;;;;;;-139.48;100.00;61774.03;4993663;28;20057;-65
2021/05/04 00:07:36;;;;;;;5.47;4.80;;;;;;;-139.48;100.00;61774.03;4992672;28;20074;-65
2021/05/04 00:10:20;;;;;;;8.02;5.75;;;;;;;-139.48;100.00;61774.03;4993313;28;20557;-65
2021/05/04 00:13:04;;;;;;;7.15;5.22;;;;;;;-139.48;100.00;61774.03;4992639;28;20057;-65
2021/05/04 00:15:48;;;;;;;8.70;5.28;;;;;;;-139.48;100.00;61774.03;4978657;28;20054;-65
2021/05/04 00:18:32;;;;;;;6.85;5.25;;;;;;;-139.48;100.00;61774.03;4996384;28;20052;-65
2021/05/04 00:21:16;;;;;;;9.63;5.90;;;;;;;-139.48;100.00;61774.03;4996149;28;20112;-65
2021/05/04 00:23:59;;;;;;;7.30;4.88;;;;;;;-139.48;100.00;61774.03;4996029;28;20136;-65
2021/05/04 00:26:43;;;;;;;6.88;5.30;;;;;;;-139.48;100.00;61774.03;4997023;28;20454;-65
2021/05/04 00:29:27;;;;;;;8.73;6.28;;;;;;;-139.48;100.00;61774.03;4996005;28;20045;-65
2021/05/04 00:32:11;;;;;;;11.73;5.70;;;;;;;-139.48;100.00;61774.03;4995673;28;20048;-65
2021/05/04 00:34:55;;;;;;;5.18;4.40;;;;;;;-139.48;100.00;61774.03;4996558;28;20049;-65
2021/05/04 00:37:39;;;;;;;7.95;6.13;;;;;;;-139.48;100.00;61774.03;4995588;28;20127;-65
2021/05/04 00:40:23;;;;;;;12.95;5.43;;;;;;;-139.48;100.00;61774.03;4996933;28;20572;-65
2021/05/04 00:43:07;;;;;;;8.07;5.45;;;;;;;-139.48;100.00;61774.03;4996431;28;20104;-65
2021/05/04 00:45:51;;;;;;;9.15;5.68;;;;;;;-139.48;100.00;61774.03;4995685;28;20050;-65
2021/05/04 00:48:35;;;;;;;7.10;5.28;;;;;;;-139.48;100.00;61774.03;4996287;28;20128;-64
2021/05/04 00:51:20;;;;;;;5.90;4.97;;;;;;;-139.48;100.00;61774.03;4996824;28;20049;-65
2021/05/04 00:54:05;;;;;;;10.98;4.47;;;;;;;-139.48;100.00;61774.03;4981550;28;20093;-65
2021/05/04 00:56:52;;;;;;;5.30;4.30;;;;;;;-139.48;100.00;61774.03;4996431;28;20053;-65
2021/05/04 00:59:37;;;;;;;7.43;3.80;;;;;;;-139.48;100.00;61774.03;4995043;28;20181;-65
2021/05/04 01:02:21;;;;;;;5.07;4.10;;;;;;;-139.48;100.00;61774.03;4995290;28;20049;-65
2021/05/04 01:05:06;;;;;;;6.32;4.57;;;;;;;-139.48;100.00;61774.03;4995341;28;20097;-65
2021/05/04 01:07:49;;;;;;;;;;;;;;;-139.48;100.00;61774.03;4995739;28;20081;-65
2021/05/04 01:10:33;;;;;;;4.05;3.65;;;;;;;-139.48;100.00;61774.03;4996251;28;19920;-65
2021/05/04 01:13:17;;;;;;;5.22;3.88;;;;;;;-139.48;100.00;61774.03;4981453;28;20068;-65
2021/05/04 01:16:01;;;;;;;4.68;4.10;;;;;;;-139.48;100.00;61774.03;4981294;28;20050;-65
2021/05/04 01:18:45;;;;;;;5.35;3.60;;;;;;;-139.48;100.00;61774.03;4995734;28;20076;-65
2021/05/04 01:21:29;;;;;;;9.48;3.15;;;;;;;-139.48;100.00;61774.03;4994745;28;20056;-65
2021/05/04 01:24:13;;;;;;;4.75;3.60;;;;;;;-139.48;100.00;61774.03;4994960;28;20414;-65
2021/05/04 01:26:58;;;;;;;3.92;3.35;;;;;;;-139.48;100.00;61774.03;4980897;28;20101;-65
2021/05/04 01:29:42;;;;;;;3.42;2.85;;;;;;;-139.48;100.00;61774.03;4993789;28;20513;-64
2021/05/04 01:32:27;;;;;;;3.78;3.38;;;;;;;-139.48;100.00;61774.03;4995063;28;20049;-65
2021/05/04 01:35:11;;;;;;;5.07;3.58;;;;;;;-139.48;100.00;61774.03;4995905;28;20080;-65
2021/05/04 01:37:56;;;;;;;5.50;3.38;;;;;;;-139.48;100.00;61774.03;4994681;28;20402;-65
2021/05/04 01:40:40;;;;;;;5.53;3.72;;;;;;;-139.48;100.00;61774.03;4995398;28;20049;-65
2021/05/04 01:43:24;;;;;;;4.18;3.40;;;;;;;-139.48;100.00;61774.03;4995589;28;20419;-65
2021/05/04 01:46:08;;;;;;;3.30;2.65;;;;;;;-139.48;100.00;61774.03;4994820;28;20049;-65
2021/05/04 01:48:52;;;;;;;5.45;2.78;;;;;;;-139.48;100.00;61774.03;4996944;28;20573;-65
2021/05/04 01:51:38;;;;;;;3.35;2.97;;;;;;;-139.48;100.00;61774.03;4995455;28;20113;-65
2021/05/04 01:54:23;;;;;;;3.72;3.00;;;;;;;-139.48;100.00;61774.03;4995053;28;20100;-65
2021/05/04 01:57:07;;;;;;;4.05;3.00;;;;;;;-139.48;100.00;61774.03;4980278;28;20069;-65
2021/05/04 01:59:51;;;;;;;3.10;2.80;;;;;;;-139.48;100.00;61774.03;4994954;28;20057;-65
2021/05/04 02:02:35;;;;;;;2.85;2.65;;;;;;;-139.48;100.00;61774.03;4994241;28;20116;-64
2021/05/04 02:05:19;;;;;;;;;;;;;;;-139.48;100.00;61774.03;4995484;28;20089;-65
2021/05/04 02:08:03;;;;;;;10.30;3.17;;;;;;;-139.48;100.00;61774.03;4995001;28;20274;-66
2021/05/04 02:10:47;;;;;;;3.65;2.75;;;;;;;-139.48;100.00;61774.03;4980562;28;20566;-65
2021/05/04 02:13:31;;;;;;;4.65;3.17;;;;;;;-139.48;100.00;61774.03;4995011;28;20081;-65
2021/05/04 02:16:15;;;;;;;4.82;2.75;;;;;;;-139.48;100.00;61774.03;4993829;28;20136;-65
2021/05/04 02:18:59;;;;;;;3.83;2.70;;;;;;;-139.48;100.00;61774.03;4994806;28;20050;-65
2021/05/04 02:21:43;;;;;;;4.68;2.90;;;;;;;-139.48;100.00;61774.03;4993609;28;20057;-65
2021/05/04 02:24:27;;;;;;;3.33;2.88;;;;;;;-139.48;100.00;61774.03;4993476;28;20554;-65
2021/05/04 02:27:11;;;;;;;4.47;2.70;;;;;;;-139.48;100.00;61774.03;4993793;28;20490;-65
2021/05/04 02:29:56;;;;;;;3.38;3.00;;;;;;;-139.48;100.00;61774.03;4994697;28;20049;-65
2021/05/04 02:32:39;;;;;;;4.70;2.65;;;;;;;-139.48;100.00;61774.03;4994372;28;20048;-65
2021/05/04 02:35:24;;;;;;;3.85;2.47;;;;;;;-139.48;100.00;61774.03;4993333;28;20052;-66
2021/05/04 02:38:08;;;;;;;;;;;;;;;-139.48;100.00;61774.03;4993952;28;20426;-65
2021/05/04 02:40:52;;;;;;;4.05;2.58;;;;;;;-139.48;100.00;61774.03;4993659;28;19920;-64
2021/05/04 02:43:36;;;;;;;3.15;2.58;;;;;;;-139.48;100.00;61774.03;4994513;28;20057;-65
2021/05/04 02:46:20;;;;;;;2.53;2.00;;;;;;;-139.48;100.00;61774.03;4994440;28;20507;-65
2021/05/04 02:49:04;;;;;;;4.65;2.47;;;;;;;-139.48;100.00;61774.03;4994548;28;20104;-65
2021/05/04 02:51:48;;;;;;;6.38;2.83;;;;;;;-139.48;100.00;61774.03;4993410;28;20411;-65
2021/05/04 02:54:32;;;;;;;3.63;2.45;;;;;;;-139.48;100.00;61774.03;4993393;28;20428;-65
2021/05/04 02:57:17;;;;;;;4.22;2.53;;;;;;;-139.48;100.00;61774.03;4994320;28;20478;-64
2021/05/04 03:00:03;;;;;;;3.88;2.50;;;;;;;-139.48;100.00;61774.03;4994220;28;20058;-65
2021/05/04 03:02:47;;;;;;;3.25;2.47;;;;;;;-139.48;100.00;61774.03;4993508;28;20049;-65
2021/05/04 03:05:30;;;;;;;6.85;2.80;;;;;;;-139.48;100.00;61774.03;4994228;28;20045;-65
2021/05/04 03:08:14;;;;;;;3.25;2.78;;;;;;;-139.48;100.00;61774.03;4992900;28;20050;-66
2021/05/04 03:10:58;;;;;;;4.50;2.65;;;;;;;-139.48;100.00;61774.03;4993150;28;20100;-65
2021/05/04 03:13:42;;;;;;;2.15;1.90;;;;;;;-139.48;100.00;61774.03;4993139;28;20053;-65
2021/05/04 03:16:26;;;;;;;2.45;2.03;;;;;;;-139.48;100.00;61774.03;4994033;28;20553;-65
2021/05/04 03:19:10;;;;;;;6.25;2.90;;;;;;;-139.48;100.00;61774.03;4993047;28;20053;-65
2021/05/04 03:21:54;;;;;;;2.72;2.50;;;;;;;-139.48;100.00;61774.03;4993047;28;20547;-65
2021/05/04 03:24:38;;;;;;;7.22;2.55;;;;;;;-139.48;100.00;61774.03;4993998;28;20069;-65
2021/05/04 03:27:22;;;;;;;5.75;2.72;;;;;;;-139.48;100.00;61774.03;4993009;28;20049;-66
2021/05/04 03:30:07;;;;;;;5.47;2.47;;;;;;;-139.48;100.00;61774.03;4993895;28;20601;-65
2021/05/04 03:32:52;;;;;;;4.20;2.45;;;;;;;-139.48;100.00;61774.03;4992949;28;20569;-66
2021/05/04 03:35:36;;;;;;;2.40;2.20;;;;;;;-139.48;100.00;61774.03;4993843;28;20044;-65
2021/05/04 03:38:20;;;;;;;5.88;2.50;;;;;;;-139.48;100.00;61774.03;4994137;28;20053;-66
2021/05/04 03:41:03;;;;;;;5.20;2.05;;;;;;;-139.48;100.00;61774.03;4978911;28;20126;-66
2021/05/04 03:43:47;;;;;;;3.95;2.28;;;;;;;-139.48;100.00;61774.03;4979121;28;20054;-65
2021/05/04 03:46:31;;;;;;;5.32;2.55;;;;;;;-139.48;100.00;61774.03;4992828;28;20395;-66
2021/05/04 03:49:15;;;;;;;5.57;3.30;;;;;;;-139.48;100.00;61774.03;4993726;28;20057;-66
2021/05/04 03:51:59;;;;;;;3.15;2.00;;;;;;;-139.48;100.00;61774.03;4994992;28;20081;-66
2021/05/04 03:54:44;;;;;;;6.03;2.63;;;;;;;-139.48;100.00;61774.03;4997615;28;20061;-66
2021/05/04 03:57:28;;;;;;;5.82;2.67;;;;;;;-139.48;100.00;61774.03;4996692;28;20042;-66
2021/05/04 04:00:13;;;;;;;3.15;2.47;;;;;;;-139.48;100.00;61774.03;4997072;28;20169;-66
2021/05/04 04:02:57;;;;;;;5.35;2.67;;;;;;;-139.48;100.00;61774.03;4996169;28;20411;-66
2021/05/04 04:05:41;;;;;;;4.53;2.60;;;;;;;-139.48;100.00;61774.03;4982608;28;20129;-65
2021/05/04 04:08:25;;;;;;;2.47;2.25;;;;;;;-139.48;100.00;61774.03;4996280;28;20069;-66
2021/05/04 04:11:09;;;;;;;3.10;2.47;;;;;;;-139.48;100.00;61774.03;4997287;28;20554;-66
2021/05/04 04:13:53;;;;;;;3.65;2.65;;;;;;;-139.48;100.00;61774.03;4982731;28;20044;-66
2021/05/04 04:16:37;;;;;;;5.40;2.70;;;;;;;-139.48;100.00;61774.03;4996885;28;20098;-65
2021/05/04 04:19:21;;;;;;;3.83;3.03;;;;;;;-139.48;100.00;61774.03;4996020;28;20521;-66
2021/05/04 04:22:05;;;;;;;4.45;2.33;;;;;;;-139.48;100.00;61774.03;4997371;28;20538;-65
2021/05/04 04:24:53;;;;;;;4.30;3.00;;;;;;;-139.48;100.00;61774.03;4996958;28;20049;-66
2021/05/04 04:27:37;;;;;;;4.53;2.63;;;;;;;-139.48;100.00;61774.03;4996705;28;20057;-66
2021/05/04 04:30:23;;;;;;;7.72;3.22;;;;;;;-139.48;100.00;61774.03;4982129;28;20537;-66
2021/05/04 04:33:08;;;;;;;3.40;2.30;;;;;;;-139.48;100.00;61774.03;4996579;28;20045;-65
2021/05/04 04:35:52;;;;;;;3.42;2.55;;;;;;;-139.48;100.00;61774.03;4996518;28;20529;-66
2021/05/04 04:38:36;;;;;;;;;;;;;;;-139.48;100.00;61774.03;4996149;28;20053;-64
2021/05/04 04:41:20;;;;;;;4.47;2.65;;;;;;;-139.48;100.00;61774.03;4995575;28;19937;-66
2021/05/04 04:44:04;;;;;;;4.97;2.70;;;;;;;-139.48;100.00;61774.03;4995547;28;20050;-66
2021/05/04 04:46:47;;;;;;;2.92;1.63;;;;;;;-139.48;100.00;61774.03;4995369;28;20045;-66
2021/05/04 04:49:31;;;;;;;2.35;1.88;;;;;;;-139.48;100.00;61774.03;4996288;28;20045;-66
2021/05/04 04:52:15;;;;;;;2.67;2.03;;;;;;;-139.48;100.00;61774.03;4996567;28;20088;-66
2021/05/04 04:54:59;;;;;;;3.72;1.98;;;;;;;-139.48;100.00;61774.03;4995426;28;20100;-66
2021/05/04 04:57:43;;;;;;;8.02;2.50;;;;;;;-139.48;100.00;61774.03;4995475;28;20510;-65
2021/05/04 05:00:27;;;;;;;7.68;2.75;;;;;;;-139.48;100.00;61774.03;4996050;28;20143;-65
2021/05/04 05:03:11;;;;;;;2.63;2.22;;;;;;;-139.48;100.00;61774.03;4994888;28;20053;-65
2021/05/04 05:05:55;;;;;;;4.15;2.08;;;;;;;-139.48;100.00;61774.03;4981608;28;20046;-65
2021/05/04 05:08:39;;;;;;;;;;;;;;;-139.48;100.00;61774.03;4996292;28;20052;-65
2021/05/04 05:11:23;;;;;;;3.17;2.63;;;;;;;-139.48;100.00;61774.03;4996150;28;19921;-66
2021/05/04 05:14:08;;;;;;;3.90;1.55;;;;;;;-139.48;100.00;61774.03;4996389;28;20129;-65
2021/05/04 05:16:52;;;;;;;4.45;1.52;;;;;;;-139.48;100.00;61774.03;4994743;28;20058;-65
2021/05/04 05:19:36;;;;;;;4.53;2.10;;;;;;;-139.48;100.00;61774.03;4995687;28;20429;-66
2021/05/04 05:22:20;;;;;;;4.28;2.65;;;;;;;-139.48;100.00;61774.03;4995998;28;20050;-65
2021/05/04 05:25:04;;;;;;;2.80;2.17;;;;;;;-139.48;100.00;61774.03;4995194;28;20096;-66
2021/05/04 05:27:48;;;;;;;4.95;2.58;;;;;;;-139.48;100.00;61774.03;4981095;28;20045;-65
2021/05/04 05:30:33;;;;;;;4.68;2.10;;;;;;;-139.48;100.00;61774.03;4994619;28;20466;-65
2021/05/04 05:33:18;;;;;;;3.50;2.67;;;;;;;-139.48;100.00;61774.03;4994798;28;20049;-65
2021/05/04 05:36:03;;;;;;;2.58;2.10;;;;;;;-139.48;100.00;61774.03;4995534;28;20089;-65
2021/05/04 05:38:47;;;;;;;3.03;2.30;;;;;;;-139.48;100.00;61774.03;4980716;28;20065;-65
2021/05/04 05:41:31;;;;;;;5.50;2.30;;;;;;;-139.48;100.00;61774.03;4994643;28;20519;-65
2021/05/04 05:44:15;;;;;;;3.70;2.08;;;;;;;-139.48;100.00;61774.03;4995569;28;20140;-66
2021/05/04 05:46:59;;;;;;;5.03;2.10;;;;;;;-139.48;100.00;61774.03;4994397;28;20129;-65
2021/05/04 05:49:43;;;;;;;4.00;2.10;;;;;;;-139.48;100.00;61774.03;4995144;28;20182;-65
2021/05/04 05:52:27;;;;;;;2.60;1.83;;;;;;;-139.48;100.00;61774.03;4995093;28;20116;-65
2021/05/04 05:55:11;;;;;;;3.67;2.47;;;;;;;-139.48;100.00;61774.03;4993957;28;20072;-66
2021/05/04 05:57:55;;;;;;;4.93;2.08;;;;;;;-139.48;100.00;61774.03;4994602;28;20402;-66
2021/05/04 06:00:39;;;;;;;2.10;1.90;;;;;;;-139.48;100.00;61774.03;4995031;28;20054;-66
2021/05/04 06:03:23;;;;;;;4.20;2.00;;;;;;;-139.48;100.00;61774.03;4980230;28;20088;-66
2021/05/04 06:06:07;;;;;;;;;;;;;;;-139.48;100.00;61774.03;4994325;28;20112;-66
2021/05/04 06:08:51;;;;;;;2.43;2.00;;;;;;;-139.48;100.00;61774.03;4994143;28;19968;-67
2021/05/04 06:11:36;;;;;;;2.63;2.15;;;;;;;-139.48;100.00;61774.03;4994107;28;20133;-66
2021/05/04 06:14:20;;;;;;;4.22;2.03;;;;;;;-139.48;100.00;61774.03;4993486;28;20096;-66
2021/05/04 06:17:05;;;;;;;2.45;2.25;;;;;;;-139.48;100.00;61774.03;4994539;28;20130;-66
2021/05/04 06:19:48;;;;;;;6.13;1.98;;;;;;;-139.48;100.00;61774.03;4994665;28;20570;-66
2021/05/04 06:22:34;;;;;;;3.63;2.35;;;;;;;-139.48;100.00;61774.03;4994617;28;20061;-66
2021/05/04 06:25:18;;;;;;;7.53;2.08;;;;;;;-139.48;100.00;61774.03;4993811;28;20045;-66
2021/05/04 06:28:07;;;;;;;3.28;2.00;;;;;;;-139.48;100.00;61774.03;4994801;28;20088;-65
2021/05/04 06:30:51;;;;;;;5.25;2.00;;;;;;;-139.48;100.00;61774.03;4994772;28;20053;-64
2021/05/04 06:33:35;;;;;;;2.42;1.65;;;;;;;-139.48;100.00;61774.03;4993438;28;20521;-66
2021/05/04 06:36:19;;;;;;;5.05;2.30;;;;;;;-139.48;100.00;61774.03;4994345;28;20431;-66
2021/05/04 06:39:04;;;;;;;3.15;2.10;;;;;;;-139.48;100.00;61774.03;4994343;28;20053;-66
2021/05/04 06:41:48;;;;;;;2.20;1.80;;;;;;;-139.48;100.00;61774.03;4993528;28;20157;-66
2021/05/04 06:44:32;;;;;;;4.13;2.05;;;;;;;-139.48;100.00;61774.03;4993559;28;20558;-66
2021/05/04 06:47:16;;;;;;;6.75;2.13;;;;;;;-139.48;100.00;61774.03;4993416;28;20081;-66
2021/05/04 06:50:00;;;;;;;4.60;2.22;;;;;;;-139.48;100.00;61774.03;4993066;28;20053;-66
2021/05/04 06:52:43;;;;;;;4.10;2.10;;;;;;;-139.48;100.00;61774.03;4993656;28;20557;-66
2021/05/04 06:55:27;;;;;;;2.70;2.20;;;;;;;-139.48;100.00;61774.03;4993197;28;20052;-65
2021/05/04 06:58:11;;;;;;;2.60;1.90;;;;;;;-139.48;100.00;61774.03;4993036;28;20119;-66
2021/05/04 07:00:55;;;;;;;2.60;1.90;;;;;;;-139.48;100.00;61774.03;4993074;28;20506;-64
2021/05/04 07:03:39;;;;;;;4.63;1.75;;;;;;;-139.48;100.00;61774.03;4994256;28;20092;-65
2021/05/04 07:06:23;;;;;;;3.25;2.05;;;;;;;-139.48;100.00;61774.03;4994118;28;20049;-66
2021/05/04 07:09:07;;;;;;;4.40;2.15;;;;;;;-139.48;100.00;61774.03;4992843;28;20546;-65
2021/05/04 07:11:52;;;;;;;3.08;1.88;;;;;;;-139.48;100.00;61774.03;4994143;28;20053;-65
2021/05/04 07:14:38;;;;;;;4.20;2.30;;;;;;;-139.48;100.00;61774.03;4993367;28;20056;-66
2021/05/04 07:17:23;;;;;;;7.75;2.28;;;;;;;-139.48;100.00;61774.03;4994008;28;20146;-65
2021/05/04 07:20:08;;;;;;;4.30;2.28;;;;;;;-139.48;100.00;61774.03;4979224;28;20510;-65
2021/05/04 07:22:55;;;;;;;4.28;1.55;;;;;;;-139.48;100.00;61774.03;4992755;28;20057;-65
2021/05/04 07:25:39;;;;;;;2.75;2.03;;;;;;;-139.48;100.00;61774.03;4992721;28;20191;-65
2021/05/04 07:28:23;;;;;;;1.73;1.63;;;;;;;-139.48;100.00;61774.03;4996876;28;20415;-66
2021/05/04 07:31:07;;;;;;;3.65;1.40;;;;;;;-139.48;100.00;61774.03;4998094;28;20057;-65
2021/05/04 07:33:51;;;;;;;6.53;2.22;;;;;;;-139.48;100.00;61774.03;4997755;28;20053;-65
2021/05/04 07:36:35;;;;;;;4.35;2.20;;;;;;;-139.48;100.00;61774.03;4997851;28;20049;-65
2021/05/04 07:39:19;;;;;;;2.42;2.08;;;;;;;-139.48;100.00;61774.03;4997494;28;20057;-65
2021/05/04 07:42:04;;;;;;;3.35;2.30;;;;;;;-139.48;100.00;61774.03;4997002;28;20081;-65
2021/05/04 07:44:48;;;;;;;5.05;1.92;;;;;;;-139.48;100.00;61774.03;4997048;28;20053;-65
2021/05/04 07:47:32;;;;;;;2.05;1.65;;;;;;;-139.48;100.00;61774.03;4997019;28;20151;-66
2021/05/04 07:50:16;;;;;;;3.38;2.30;;;;;;;-139.48;100.00;61774.03;4998845;28;20053;-66
2021/05/04 07:53:07;;;;;;;3.72;2.08;;;;;;;-139.48;100.00;61774.03;4982739;28;20137;-67
2021/05/04 07:55:51;;;;;;;1.95;1.77;;;;;;;-139.48;100.00;61774.03;4996550;28;20049;-67
2021/05/04 07:58:36;;;;;;;2.60;1.92;;;;;;;-139.48;100.00;61774.03;4982513;28;20427;-65
2021/05/04 08:01:20;;;;;;;5.40;2.33;;;;;;;-139.48;100.00;61774.03;4997048;28;20242;-66
2021/05/04 08:04:04;;;;;;;6.93;2.47;;;;;;;-139.48;100.00;61774.03;4996282;28;20062;-66
2021/05/04 08:06:48;;;;;;;5.63;2.28;;;;;;;-139.48;100.00;61774.03;4996410;28;20053;-66
2021/05/04 08:09:31;;;;;;;3.90;2.03;;;;;;;-139.48;100.00;61774.03;4996993;28;20129;-66
2021/05/04 08:12:15;;;;;;;3.80;2.13;;;;;;;-139.48;100.00;61774.03;4997017;28;20069;-66
2021/05/04 08:15:00;;;;;;;5.15;2.30;;;;;;;-139.48;100.00;61774.03;4997182;28;20513;-66
2021/05/04 08:17:50;;;;;;;6.97;2.05;;;;;;;-139.48;100.00;61774.03;4996358;28;20088;-66
2021/05/04 08:20:36;;;;;;;2.85;1.75;;;;;;;-139.48;100.00;61774.03;4997389;28;20397;-66
2021/05/04 08:23:25;;;;;;;2.40;2.20;;;;;;;-139.48;100.00;61774.03;4997116;28;20057;-66
2021/05/04 08:26:09;;;;;;;2.83;1.90;;;;;;;-139.48;100.00;61774.03;4995957;28;20089;-66
2021/05/04 08:28:55;;;;;;;3.97;1.77;;;;;;;-139.48;100.00;61774.03;4997006;28;20052;-66
2021/05/04 08:31:40;;;;;;;8.25;1.90;;;;;;;-139.48;100.00;61774.03;4996211;28;20558;-66
2021/05/04 08:34:25;;;;;;;4.05;2.20;;;;;;;-139.48;100.00;61774.03;4995498;28;20118;-67
2021/05/04 08:37:09;;;;;;;2.17;1.98;;;;;;;-139.48;100.00;61774.03;4981886;28;20053;-66
2021/05/04 08:39:53;;;;;;;1.42;1.13;;;;;;;-139.48;100.00;61774.03;4995559;28;20418;-66
2021/05/04 08:42:36;;;;;;;2.17;1.80;;;;;;;-139.48;100.00;61774.03;4996815;28;20052;-65
2021/05/04 08:45:20;;;;;;;4.22;2.17;;;;;;;-139.48;100.00;61774.03;4995756;28;20103;-67
2021/05/04 08:48:05;;;;;;;4.00;2.22;;;;;;;-139.48;100.00;61774.03;4995525;28;20557;-67
2021/05/04 08:50:49;;;;;;;4.20;2.22;;;;;;;-139.48;100.00;61774.03;4996322;28;20058;-66
2021/05/04 08:53:33;;;;;;;4.32;1.85;;;;;;;-139.48;100.00;61774.03;4995830;28;20130;-66
2021/05/04 08:56:17;;;;;;;10.10;1.95;;;;;;;-139.48;100.00;61774.03;4996398;28;20054;-67
2021/05/04 08:59:03;;;;;;;4.28;1.52;;;;;;;-139.48;100.00;61774.03;4995553;28;20105;-67
2021/05/04 09:01:47;;;;;;;5.43;1.35;;;;;;;-139.48;100.00;61774.03;4995077;28;20418;-67
2021/05/04 09:04:37;;;;;;;1.77;1.13;;;;;;;-139.48;100.00;61774.03;4995363;28;20526;-67
2021/05/04 09:07:33;;;;;;;2.00;1.25;;;;;;;-139.48;100.00;61774.03;4995111;28;20049;-67
2021/05/04 09:10:30;;;;;;;5.40;1.70;;;;;;;-139.48;100.00;61774.03;4994945;28;20092;-66
2021/05/04 09:13:24;;;;;;;7.07;1.40;;;;;;;-139.48;100.00;61774.03;4995114;28;20466;-65
2021/05/04 09:16:24;;;;;;;6.50;1.70;;;;;;;-139.48;100.00;61774.03;4995184;28;20045;-66
2021/05/04 09:21:52;;;;;;;6.50;1.55;;;;;;;-139.48;100.00;61774.03;4995238;28;20184;-66
2021/05/04 09:24:44;;;;;;;1.48;1.20;;;;;;;-139.48;100.00;61774.03;4995529;28;20435;-66
2021/05/04 09:27:28;;;;;;;9.65;1.90;;;;;;;-139.48;100.00;61774.03;4994933;28;20502;-66
2021/05/04 09:30:12;;;;;;;1.23;1.13;;;;;;;-139.48;100.00;61774.03;4994520;28;20057;-66
2021/05/04 09:32:56;;;;;;;;;;;;;;;-139.48;100.00;61774.03;4995203;28;20132;-66
2021/05/04 09:35:40;;;;;;;2.45;1.77;;;;;;;-139.48;100.00;61774.03;4995407;28;19924;-65
2021/05/04 09:38:24;;;;;;;5.47;1.60;;;;;;;-139.48;100.00;61774.03;4994916;28;20053;-65
2021/05/04 09:41:27;;;;;;;3.80;1.70;;;;;;;-139.48;100.00;61774.03;4994733;28;20080;-65
2021/05/04 09:44:11;;;;;;;4.90;1.67;;;;;;;-139.48;100.00;61774.03;4994479;28;20134;-65
2021/05/04 09:46:55;;;;;;;1.83;1.48;;;;;;;-139.48;100.00;61774.03;4995266;28;20418;-66
2021/05/04 09:49:40;;;;;;;17.65;1.35;;;;;;;-139.48;100.00;61774.03;4993618;28;20486;-66
2021/05/04 09:55:17;;;;;;;1.90;1.40;;;;;;;-139.48;100.00;61774.03;4995261;28;20112;-67
2021/05/04 09:58:07;;;;;;;3.30;1.65;;;;;;;-139.48;100.00;61774.03;4995378;28;20053;-67
2021/05/04 10:00:51;;;;;;;1.45;1.20;;;;;;;-139.48;100.00;61774.03;4980579;28;20104;-67
2021/05/04 10:03:37;;;;;;;1.60;1.45;;;;;;;-139.48;100.00;61774.03;4994968;28;20053;-67
2021/05/04 10:06:21;;;;;;;1.20;1.10;;;;;;;-139.48;100.00;61774.03;4994180;28;20095;-67
2021/05/04 10:09:05;;;;;;;2.97;1.48;;;;;;;-139.48;100.00;61774.03;4980208;28;20113;-67
2021/05/04 10:11:50;;;;;;;1.73;1.20;;;;;;;-139.48;100.00;61774.03;4994082;28;20051;-67
2021/05/04 10:14:34;;;;;;;1.77;1.58;;;;;;;-139.48;100.00;61774.03;4993815;28;20490;-67
2021/05/04 10:17:19;;;;;;;4.40;1.50;;;;;;;-139.48;100.00;61774.03;4993723;28;20185;-67
2021/05/04 10:20:09;;;;;;;2.88;1.48;;;;;;;-139.48;100.00;61774.03;4993664;28;20061;-67
2021/05/04 10:22:54;;;;;;;3.00;1.63;;;;;;;-139.48;100.00;61774.03;4993920;28;20053;-67
2021/05/04 10:25:40;;;;;;;2.85;1.38;;;;;;;-139.48;100.00;61774.03;4994570;28;20093;-67
2021/05/04 10:28:37;;;;;;;1.88;1.40;;;;;;;-139.48;100.00;61774.03;4979748;28;20445;-67
2021/05/04 10:31:43;;;;;;;1.98;1.73;;;;;;;-139.48;100.00;61774.03;4993516;28;20514;-67
2021/05/04 10:34:33;;;;;;;5.45;1.77;;;;;;;-139.48;100.00;61774.03;4994951;28;20089;-67
2021/05/04 10:37:17;;;;;;;1.92;1.70;;;;;;;-139.48;100.00;61774.03;4994554;28;20053;-68
2021/05/04 10:40:20;;;;;;;3.35;2.17;;;;;;;-139.48;100.00;61774.03;4994207;28;20056;-68
2021/05/04 10:43:22;;;;;;;2.55;1.42;;;;;;;-139.48;100.00;61774.03;4993161;28;20476;-67
2021/05/04 10:46:09;;;;;;;1.73;1.58;;;;;;;-139.48;100.00;61774.03;4994418;28;20041;-68
2021/05/04 10:48:53;;;;;;;2.08;1.27;;;;;;;-139.48;100.00;61774.03;4979799;28;20085;-67
2021/05/04 10:51:44;;;;;;;3.13;1.65;;;;;;;-139.48;100.00;61774.03;4979686;28;20093;-67
2021/05/04 10:54:54;;;;;;;5.75;1.50;;;;;;;-139.48;100.00;61774.03;4979503;28;20053;-67
2021/05/04 10:58:03;;;;;;;2.10;1.40;;;;;;;-139.48;100.00;61774.03;4994302;28;20128;-67
2021/05/04 11:01:01;;;;;;;2.35;1.65;;;;;;;-139.48;100.00;61774.03;4992850;28;20517;-67
2021/05/04 11:03:50;;;;;;;2.45;1.60;;;;;;;-139.48;100.00;61774.03;4992826;28;20045;-67
2021/05/04 11:06:35;;;;;;;1.55;1.20;;;;;;;-139.48;100.00;61774.03;4979435;28;20045;-67
2021/05/04 11:09:20;;;;;;;1.40;1.30;;;;;;;-139.48;100.00;61774.03;4992966;28;20112;-68
2021/05/04 11:12:05;;;;;;;1.77;1.33;;;;;;;-139.48;100.00;61774.03;4979521;28;20105;-68
2021/05/04 11:14:49;;;;;;;3.70;1.77;;;;;;;-139.48;100.00;61774.03;4993097;28;20065;-68
2021/05/04 11:17:42;;;;;;;2.60;1.70;;;;;;;-139.48;100.00;61774.03;4994122;28;20105;-68
2021/05/04 11:20:34;;;;;;;2.13;1.98;;;;;;;-139.48;100.00;61774.03;4993989;28;20112;-67
2021/05/04 11:23:23;;;;;;;2.58;1.52;;;;;;;-139.48;100.00;61774.03;4992931;28;20073;-68
2021/05/04 11:26:10;;;;;;;2.75;1.80;;;;;;;-139.48;100.00;61774.03;4992894;28;20482;-67
2021/05/04 11:29:10;;;;;;;2.25;1.88;;;;;;;-139.48;100.00;61774.03;4992851;28;20048;-67
2021/05/04 11:31:55;;;;;;;4.13;1.60;;;;;;;-139.48;100.00;61774.03;4994097;28;20053;-67
2021/05/04 11:34:55;;;;;;;5.65;1.98;;;;;;;-139.48;100.00;61774.03;4993941;28;20481;-68
2021/05/04 11:37:46;;;;;;;2.25;1.48;;;;;;;-139.48;100.00;61774.03;4993906;28;20049;-67
2021/05/04 11:40:30;;;;;;;2.63;1.65;;;;;;;-139.48;100.00;61774.03;4992898;28;20049;-67
2021/05/04 11:43:16;;;;;;;1.85;1.23;;;;;;;-139.48;100.00;61774.03;4978869;28;20049;-68
2021/05/04 11:46:00;;;;;;;2.17;1.67;;;;;;;-139.48;100.00;61774.03;4992848;28;20045;-68
2021/05/04 11:48:44;;;;;;;2.80;1.30;;;;;;;-139.48;100.00;61774.03;4978960;28;20054;-68
2021/05/04 11:51:28;;;;;;;2.45;1.70;;;;;;;-139.48;100.00;61774.03;4992705;28;20053;-67
2021/05/04 11:54:13;;;;;;;2.00;1.42;;;;;;;-139.48;100.00;61774.03;4993532;28;20099;-67
2021/05/04 11:56:59;;;;;;;2.10;1.85;;;;;;;-139.48;100.00;61774.03;4993615;28;20053;-67
2021/05/04 11:59:43;;;;;;;1.95;1.50;;;;;;;-139.48;100.00;61774.03;4978979;28;20097;-67
2021/05/04 12:02:31;;;;;;;3.33;1.55;;;;;;;-139.48;100.00;61774.03;4993263;28;20100;-68
2021/05/04 12:05:24;;;;;;;2.78;1.90;;;;;;;-139.48;100.00;61774.03;4992668;28;20085;-67
2021/05/04 12:08:09;;;;;;;3.55;1.70;;;;;;;-139.48;100.00;61774.03;4992623;28;20053;-68
2021/05/04 12:10:54;;;;;;;3.28;1.60;;;;;;;-139.48;100.00;61774.03;4993329;28;20077;-67
2021/05/04 12:13:38;;;;;;;2.72;1.40;;;;;;;-139.48;100.00;61774.03;4994714;28;20462;-68
2021/05/04 12:16:27;;;;;;;2.30;1.58;;;;;;;-139.48;100.00;61774.03;4996348;28;20493;-68
2021/05/04 12:19:23;;;;;;;4.50;1.67;;;;;;;-139.48;100.00;61774.03;4996879;28;20454;-68
2021/05/04 12:22:07;;;;;;;4.57;1.52;;;;;;;-139.48;100.00;61774.03;4982569;28;20049;-67
2021/05/04 12:24:57;;;;;;;8.82;1.90;;;;;;;-139.48;100.00;61774.03;4982081;28;20068;-67
2021/05/04 12:27:42;;;;;;;1.65;1.55;;;;;;;-139.48;100.00;61774.03;4996993;28;20104;-67
2021/05/04 12:30:26;;;;;;;4.13;1.75;;;;;;;-139.48;100.00;61774.03;4981752;28;20149;-67
2021/05/04 12:33:10;;;;;;;6.82;1.55;;;;;;;-139.48;100.00;61774.03;4996937;28;20053;-67
2021/05/04 12:39:32;;;;;;;1.27;1.08;;;;;;;-139.48;100.00;61774.03;4963472;28;20053;-67
2021/05/04 12:42:20;;;;;;;1.92;1.20;;;;;;;-139.48;100.00;61774.03;4996928;28;20103;-67
2021/05/04 12:45:10;;;;;;;1.33;0.90;;;;;;;-139.48;100.00;61774.03;4981910;28;20561;-67